Home > Products > Valid Products > TAF

000
FTUS41 KAKQ 221120
TAFSBY
TAF
KSBY 221120Z 2212/2312 29007KT P6SM SKC
     FM221400 31011G20KT P6SM SKC
     FM230100 VRB03KT P6SM SKC=



000
FTUS41 KAKQ 221120
TAFRIC
TAF
KRIC 221120Z 2212/2312 31005KT P6SM SKC
     FM230100 VRB05KT P6SM SKC=



000
FTUS41 KAKQ 221120
TAFECG
TAF
KECG 221120Z 2212/2312 30011KT P6SM SCT100
     FM221500 35010KT P6SM SKC
     FM230100 VRB03KT P6SM SKC=



000
FTUS41 KAKQ 221120
TAFORF
TAF
KORF 221120Z 2212/2312 35011G20KT P6SM SKC
     FM230100 24010KT P6SM SKC=



000
FTUS41 KAKQ 221120
TAFPHF
TAF
KPHF 221120Z 2212/2312 32006KT P6SM SKC
     FM221400 36009G15KT P6SM SKC
     FM230100 VRB05KT P6SM SKC=



000
FTUS41 KAKQ 221120
TAFRIC
TAF
KRIC 221120Z 2212/2312 31005KT P6SM SKC
     FM230100 VRB05KT P6SM SKC=



000
FTUS41 KAKQ 221120
TAFECG
TAF
KECG 221120Z 2212/2312 30011KT P6SM SCT100
     FM221500 35010KT P6SM SKC
     FM230100 VRB03KT P6SM SKC=



000
FTUS41 KAKQ 221120
TAFPHF
TAF
KPHF 221120Z 2212/2312 32006KT P6SM SKC
     FM221400 36009G15KT P6SM SKC
     FM230100 VRB05KT P6SM SKC=



000
FTUS41 KAKQ 221120
TAFORF
TAF
KORF 221120Z 2212/2312 35011G20KT P6SM SKC
     FM230100 24010KT P6SM SKC=



000
FTUS41 KAKQ 221120
TAFSBY
TAF
KSBY 221120Z 2212/2312 29007KT P6SM SKC
     FM221400 31011G20KT P6SM SKC
     FM230100 VRB03KT P6SM SKC=



000
FTUS41 KAKQ 220902 AAB
TAFPHF
TAF AMD
KPHF 220902Z 2209/2306 35007KT P6SM FEW020 SCT080
     FM221400 36009G15KT P6SM SKC
     FM230100 VRB05KT P6SM SKC=



000
FTUS41 KAKQ 220902 AAB
TAFPHF
TAF AMD
KPHF 220902Z 2209/2306 35007KT P6SM FEW020 SCT080
     FM221400 36009G15KT P6SM SKC
     FM230100 VRB05KT P6SM SKC=



000
FTUS41 KAKQ 220806 AAA
TAFRIC
TAF AMD
KRIC 220806Z 2208/2306 32007KT P6SM SCT008 BKN060
     FM221100 32011KT P6SM SKC
     FM230100 VRB05KT P6SM SKC=



000
FTUS41 KAKQ 220804 AAA
TAFSBY
TAF AMD
KSBY 220804Z 2208/2306 32007KT P6SM SCT015 OVC050
     FM221400 31012KT P6SM SKC=



000
FTUS41 KAKQ 220804 AAA
TAFSBY
TAF AMD
KSBY 220804Z 2208/2306 32007KT P6SM SCT015 OVC050
     FM221400 31012KT P6SM SKC=



000
FTUS41 KAKQ 220729 AAA
TAFPHF
TAF AMD
KPHF 220729Z 2207/2306 34007KT P6SM SCT008 OVC010
      TEMPO 2207/2209 SCT010
     FM221100 35009G15KT P6SM SCT020 BKN080
     FM221500 36010KT P6SM SKC=



000
FTUS41 KAKQ 220727 AAA
TAFORF
TAF AMD
KORF 220727Z 2207/2306 33009G15KT P6SM SCT008 OVC012
     FM221000 34009G15KT P6SM SCT020 BKN100
     FM221500 36010KT P6SM SKC=



000
FTUS41 KAKQ 220540
TAFSBY
TAF
KSBY 220540Z 2206/2306 33009KT P6SM SCT003 OVC006
      TEMPO 2206/2208 OVC004
     FM220800 32008KT 5SM BR SCT007 OVC015
     FM221100 30005KT P6SM SCT015 OVC025
     FM221300 31012KT P6SM SKC=



000
FTUS41 KAKQ 220540
TAFRIC
TAF
KRIC 220540Z 2206/2306 31005KT P6SM BKN008 OVC040
     FM220900 32007KT P6SM SCT020 BKN060
     FM221200 32011KT P6SM SKC=



000
FTUS41 KAKQ 220540
TAFPHF
TAF
KPHF 220540Z 2206/2306 34007KT P6SM SCT008 OVC012
      TEMPO 2206/2208 BKN008
     FM221100 35009G15KT P6SM SCT020 BKN080
     FM221500 36010KT P6SM SKC=



000
FTUS41 KAKQ 220540
TAFECG
TAF
KECG 220540Z 2206/2306 31012KT P6SM SCT008 OVC015
      TEMPO 2206/2208 BKN008
     FM220800 33011KT P6SM SCT015 BKN040 BKN250
     FM221500 35010KT P6SM SKC=



000
FTUS41 KAKQ 220540
TAFORF
TAF
KORF 220540Z 2206/2306 33007KT P6SM SCT008 OVC012
      TEMPO 2206/2208 OVC008
     FM221100 34009G15KT P6SM SCT020 BKN100
     FM221500 36010KT P6SM SKC=



000
FTUS41 KAKQ 220526 AAC
TAFECG
TAF AMD
KECG 220526Z 2205/2224 31012KT P6SM SCT008 OVC015
      TEMPO 2206/2208 BKN008
     FM220800 33011KT P6SM SCT015 BKN040 BKN250
     FM221500 35010KT P6SM SKC=



000
FTUS41 KAKQ 220526 AAC
TAFECG
TAF AMD
KECG 220526Z 2205/2224 31012KT P6SM SCT008 OVC015
      TEMPO 2206/2208 BKN008
     FM220800 33011KT P6SM SCT015 BKN040 BKN250
     FM221500 35010KT P6SM SKC=



000
FTUS41 KAKQ 220407 AAA
TAFSBY
TAF AMD
KSBY 220407Z 2204/2224 33009KT P6SM SCT003 OVC007
      TEMPO 2204/2206 OVC004
     FM220700 32008KT 5SM BR SCT007 OVC015
     FM221000 30005KT P6SM SCT015 OVC025
     FM221300 31012KT P6SM SKC=



000
FTUS41 KAKQ 220407 AAA
TAFSBY
TAF AMD
KSBY 220407Z 2204/2224 33009KT P6SM SCT003 OVC007
      TEMPO 2204/2206 OVC004
     FM220700 32008KT 5SM BR SCT007 OVC015
     FM221000 30005KT P6SM SCT015 OVC025
     FM221300 31012KT P6SM SKC=



000
FTUS41 KAKQ 220404 AAB
TAFPHF
TAF AMD
KPHF 220404Z 2204/2224 34007KT P6SM SCT006 OVC012
      TEMPO 2204/2207 OVC006
     FM221200 35010KT P6SM SCT020 BKN080
     FM221400 36010KT P6SM SKC=



000
FTUS41 KAKQ 220357 AAB
TAFORF
TAF AMD
KORF 220357Z 2204/2224 33009G15KT P6SM SCT006 OVC012
      TEMPO 2204/2207 OVC006
     FM221200 35010KT P6SM SCT020 BKN100
     FM221500 36010KT P6SM SCT250=



000
FTUS41 KAKQ 220343 AAB
TAFECG
TAF AMD
KECG 220343Z 2204/2224 30009KT P6SM SCT008 OVC015
      TEMPO 2204/2207 BKN008
     FM220800 33011KT P6SM SCT015 BKN040
     FM221200 34010KT P6SM BKN250=



000
FTUS41 KAKQ 220310 AAB
TAFRIC
TAF AMD
KRIC 220310Z 2203/2224 34007KT P6SM FEW004 OVC008
      TEMPO 2203/2206 OVC004
     FM220700 33005KT P6SM BKN025 OVC040
     FM220900 32007KT P6SM SCT060
     FM221200 32011KT P6SM SKC=



000
FTUS41 KAKQ 220310 AAB
TAFRIC
TAF AMD
KRIC 220310Z 2203/2224 34007KT P6SM FEW004 OVC008
      TEMPO 2203/2206 OVC004
     FM220700 33005KT P6SM BKN025 OVC040
     FM220900 32007KT P6SM SCT060
     FM221200 32011KT P6SM SKC=



000
FTUS41 KAKQ 220134 CCA
TAFECG
TAF COR
KECG 220134Z 2202/2224 34019G25KT P6SM OVC008
      TEMPO 2202/2203 BKN007
     FM220600 33012G18KT P6SM BKN050
     FM221200 34010KT P6SM BKN250=



000
FTUS41 KAKQ 220133 AAA
TAFECG
TAF AMD
KECG 220133Z 2202/2224 30011KT P6SM SCT007 BKN014
      TEMPO 2202/2203 BKN007
     FM220600 33012G18KT P6SM BKN050
     FM221200 34010KT P6SM BKN250=



000
FTUS41 KAKQ 220132 AAA
TAFPHF
TAF AMD
KPHF 220132Z 2202/2224 01005KT P6SM OVC010
     FM220500 34009KT P6SM OVC025
     FM221200 33008KT P6SM BKN250=



000
FTUS41 KAKQ 220132 AAA
TAFORF
TAF AMD
KORF 220132Z 2202/2224 36011G24KT P6SM OVC011
     FM220300 34012G20KT P6SM OVC025
     FM221200 35010KT P6SM BKN250=



000
FTUS41 KAKQ 220131 AAA
TAFRIC
TAF AMD
KRIC 220131Z 2202/2224 34009KT P6SM OVC005
     FM220600 33005KT P6SM FEW008
     FM221200 32010KT P6SM SKC=



000
FTUS41 KAKQ 212330
TAFSBY
TAF
KSBY 212330Z 2200/2224 03004KT 6SM BR BKN006
      TEMPO 2200/2202 2SM -DZ BR OVC004
     FM220600 32008KT 5SM BR OVC015
     FM220900 30005KT P6SM SCT015
     FM221200 31012KT P6SM BKN250=



000
FTUS41 KAKQ 212330
TAFRIC
TAF
KRIC 212330Z 2200/2224 03009KT P6SM OVC008
     FM220200 02006KT 5SM BR OVC004
     FM220600 33005KT P6SM FEW008
     FM221200 32010KT P6SM SKC=



000
FTUS41 KAKQ 212330
TAFORF
TAF
KORF 212330Z 2200/2224 01016G22KT P6SM BKN007 BKN011
     FM220300 34012G20KT P6SM OVC025
     FM221200 35010KT P6SM BKN250=



000
FTUS41 KAKQ 212330
TAFPHF
TAF
KPHF 212330Z 2200/2224 03012G18KT 4SM BR SCT003 OVC007
     FM220500 34009KT P6SM OVC025
     FM221200 33008KT P6SM BKN250=



000
FTUS41 KAKQ 212330
TAFRIC
TAF
KRIC 212330Z 2200/2224 03009KT P6SM OVC008
     FM220200 02006KT 5SM BR OVC004
     FM220600 33005KT P6SM FEW008
     FM221200 32010KT P6SM SKC=



000
FTUS41 KAKQ 212330
TAFORF
TAF
KORF 212330Z 2200/2224 01016G22KT P6SM BKN007 BKN011
     FM220300 34012G20KT P6SM OVC025
     FM221200 35010KT P6SM BKN250=



000
FTUS41 KAKQ 212330
TAFPHF
TAF
KPHF 212330Z 2200/2224 03012G18KT 4SM BR SCT003 OVC007
     FM220500 34009KT P6SM OVC025
     FM221200 33008KT P6SM BKN250=



000
FTUS41 KAKQ 212330
TAFECG
TAF
KECG 212330Z 2200/2224 30011KT P6SM SCT007 BKN014
      TEMPO 2200/2202 BKN007
     FM220600 33012G18KT P6SM BKN050
     FM221200 34010KT P6SM BKN250=



000
FTUS41 KAKQ 212330
TAFSBY
TAF
KSBY 212330Z 2200/2224 03004KT 6SM BR BKN006
      TEMPO 2200/2202 2SM -DZ BR OVC004
     FM220600 32008KT 5SM BR OVC015
     FM220900 30005KT P6SM SCT015
     FM221200 31012KT P6SM BKN250=



000
FTUS41 KAKQ 212330
TAFECG
TAF
KECG 212330Z 2200/2224 30011KT P6SM SCT007 BKN014
      TEMPO 2200/2202 BKN007
     FM220600 33012G18KT P6SM BKN050
     FM221200 34010KT P6SM BKN250=



000
FTUS41 KAKQ 212251 AAC
TAFECG
TAF AMD
KECG 212251Z 2123/2218 30011KT P6SM SCT007 BKN014
      TEMPO 2123/2202 BKN007
     FM220600 33012G18KT P6SM BKN050
     FM221200 34010KT P6SM BKN250=



000
FTUS41 KAKQ 212251 AAC
TAFECG
TAF AMD
KECG 212251Z 2123/2218 30011KT P6SM SCT007 BKN014
      TEMPO 2123/2202 BKN007
     FM220600 33012G18KT P6SM BKN050
     FM221200 34010KT P6SM BKN250=



000
FTUS41 KAKQ 212249 AAA
TAFRIC
TAF AMD
KRIC 212249Z 2123/2218 03009KT P6SM OVC008
     FM220600 33005KT P6SM BKN250
     FM221200 32010KT P6SM SKC=



000
FTUS41 KAKQ 212247 AAB
TAFSBY
TAF AMD
KSBY 212247Z 2123/2218 03004KT 6SM BR BKN006
     FM220300 32008KT 5SM BR OVC015
     FM220800 30005KT P6SM BKN150
     FM221200 31012KT P6SM BKN250=



000
FTUS41 KAKQ 212247 AAB
TAFSBY
TAF AMD
KSBY 212247Z 2123/2218 03004KT 6SM BR BKN006
     FM220300 32008KT 5SM BR OVC015
     FM220800 30005KT P6SM BKN150
     FM221200 31012KT P6SM BKN250=



000
FTUS41 KAKQ 212230 AAB
TAFORF
TAF AMD
KORF 212230Z 2123/2218 01016G22KT P6SM BKN007 BKN011 OVC018
     FM220300 34012G20KT P6SM OVC025
     FM221200 35010KT P6SM BKN250=



000
FTUS41 KAKQ 212230 AAB
TAFORF
TAF AMD
KORF 212230Z 2123/2218 01016G22KT P6SM BKN007 BKN011 OVC018
     FM220300 34012G20KT P6SM OVC025
     FM221200 35010KT P6SM BKN250=



000
FTUS41 KAKQ 212229 AAB
TAFECG
TAF AMD
KECG 212229Z 2122/2218 26012KT P6SM SCT008 BKN014 BKN090
     FM212300 36015G25KT P6SM OVC015
     FM220600 33012G18KT P6SM BKN050
     FM221200 34010KT P6SM BKN250=



000
FTUS41 KAKQ 212229 AAB
TAFECG
TAF AMD
KECG 212229Z 2122/2218 26012KT P6SM SCT008 BKN014 BKN090
     FM212300 36015G25KT P6SM OVC015
     FM220600 33012G18KT P6SM BKN050
     FM221200 34010KT P6SM BKN250=



000
FTUS41 KAKQ 212054 AAA
TAFSBY
TAF AMD
KSBY 212054Z 2121/2218 03008KT 4SM -RA BR BKN006 BKN060 OVC070
     FM212200 04009KT 3SM -RA BR SCT007 OVC025
     FM220300 32008KT 5SM BR OVC015
     FM220800 30005KT P6SM BKN150
     FM221200 31012KT P6SM BKN250=



000
FTUS41 KAKQ 212054 AAA
TAFSBY
TAF AMD
KSBY 212054Z 2121/2218 03008KT 4SM -RA BR BKN006 BKN060 OVC070
     FM212200 04009KT 3SM -RA BR SCT007 OVC025
     FM220300 32008KT 5SM BR OVC015
     FM220800 30005KT P6SM BKN150
     FM221200 31012KT P6SM BKN250=



000
FTUS41 KAKQ 212050 AAA
TAFPHF
TAF AMD
KPHF 212050Z 2121/2218 02010G20KT P6SM -RA SCT008 OVC013
      TEMPO 2121/2123 2SM RA BR BKN008
     FM212300 03012G18KT 4SM BR SCT003 OVC007
     FM220300 34009KT P6SM OVC025
     FM221200 33008KT P6SM BKN250=



000
FTUS41 KAKQ 212049 AAA
TAFORF
TAF AMD
KORF 212049Z 2121/2218 03017KT P6SM -RA SCT007 OVC013
      TEMPO 2121/2123 2SM SHRA BR BKN007
     FM212300 02014G25KT P6SM OVC007
     FM220300 34012G20KT P6SM OVC025
     FM221200 35010KT P6SM BKN250=



000
FTUS41 KAKQ 212037 AAA
TAFECG
TAF AMD
KECG 212037Z 2121/2218 12014G24KT P6SM VCTS SCT025CB BKN100
      TEMPO 2121/2122 VRB30KT 1SM +TSRA BR OVC025CB
     FM212300 36015G25KT P6SM OVC015
     FM220600 33012G18KT P6SM BKN050
     FM221200 34010KT P6SM BKN250=



000
FTUS41 KAKQ 212037 AAA
TAFECG
TAF AMD
KECG 212037Z 2121/2218 12014G24KT P6SM VCTS SCT025CB BKN100
      TEMPO 2121/2122 VRB30KT 1SM +TSRA BR OVC025CB
     FM212300 36015G25KT P6SM OVC015
     FM220600 33012G18KT P6SM BKN050
     FM221200 34010KT P6SM BKN250=



000
FTUS41 KAKQ 211731
TAFPHF
TAF
KPHF 211731Z 2118/2218 11010KT 6SM -RA BR SCT008 BKN015 OVC030
      TEMPO 2118/2121 2SM RA BR BKN008
     FM212200 03012G18KT 4SM BR SCT003 OVC007
     FM220300 34009KT P6SM OVC025
     FM221200 33008KT P6SM BKN250=



000
FTUS41 KAKQ 211731
TAFRIC
TAF
KRIC 211731Z 2118/2218 01010KT 5SM -RA BR BKN005 OVC035
      TEMPO 2118/2120 2SM RA BR SCT005 OVC025
     FM212100 35007KT 4SM BR OVC007
     FM220600 33005KT P6SM BKN250
     FM221200 32010KT P6SM SKC=



000
FTUS41 KAKQ 211731
TAFECG
TAF
KECG 211731Z 2118/2218 12014G24KT P6SM SCT025 BKN100
     FM212000 06012KT P6SM BKN050
      TEMPO 2120/2122 VRB25KT 2SM TSRA BR BKN030CB
     FM212300 36015G25KT P6SM OVC015
     FM220600 33012G18KT P6SM BKN050
     FM221200 34010KT P6SM BKN250=



000
FTUS41 KAKQ 211731
TAFORF
TAF
KORF 211731Z 2118/2218 12012G20KT P6SM SCT020 BKN045 OVC100
      TEMPO 2119/2122 2SM SHRA BR BKN020
     FM212300 02014G25KT P6SM OVC007
     FM220300 34012G20KT P6SM OVC025
     FM221200 35010KT P6SM BKN250=



000
FTUS41 KAKQ 211731
TAFSBY
TAF
KSBY 211731Z 2118/2218 02008KT P6SM -RA SCT012 OVC045
      TEMPO 2118/2121 4SM -RA BR OVC012
     FM212200 04009KT 3SM -RA BR SCT007 OVC025
     FM220300 32008KT 5SM BR OVC015
     FM220800 30005KT P6SM BKN150
     FM221200 31012KT P6SM BKN250=



000
FTUS41 KAKQ 211510 AAA
TAFORF
TAF AMD
KORF 211510Z 2115/2212 12012KT P6SM -RA SCT020 BKN045 OVC100
      TEMPO 2115/2118 3SM RA BR BKN020
     FM211800 10011KT 3SM -RA BR SCT005 BKN011
     FM212100 02014KT P6SM OVC007=



000
FTUS41 KAKQ 211510 AAA
TAFORF
TAF AMD
KORF 211510Z 2115/2212 12012KT P6SM -RA SCT020 BKN045 OVC100
      TEMPO 2115/2118 3SM RA BR BKN020
     FM211800 10011KT 3SM -RA BR SCT005 BKN011
     FM212100 02014KT P6SM OVC007=



000
FTUS41 KAKQ 211505 AAA
TAFPHF
TAF AMD
KPHF 211505Z 2115/2212 11010KT 5SM -RA BR SCT008 BKN030
      TEMPO 2115/2118 2SM RA BR BKN008
     FM211800 07011KT 3SM -RA BR OVC008
     FM212200 03009KT P6SM SCT003 OVC007=



000
FTUS41 KAKQ 211501 AAA
TAFRIC
TAF AMD
KRIC 211501Z 2115/2212 03007KT 4SM -RA BR SCT008 BKN025
      TEMPO 2115/2118 2SM RA BR BKN008
     FM211800 04009KT 6SM -RA BR OVC008
     FM220200 35007KT 4SM BR SCT003 OVC007=



000
FTUS41 KAKQ 211128
TAFRIC
TAF
KRIC 211128Z 2112/2212 05007KT P6SM -RA OVC040
     FM211300 05007KT 4SM -RA BR SCT008 BKN025
     FM211700 04009KT 6SM -RA BR OVC008
     FM220200 35007KT 4SM BR SCT003 OVC007=



000
FTUS41 KAKQ 211128
TAFSBY
TAF
KSBY 211128Z 2112/2212 00000KT P6SM SCT040 BKN100
     FM211400 07006KT P6SM -RA OVC025
     FM211800 07006KT 4SM -RA BR SCT006 BKN015
     FM212100 04009KT P6SM SCT003 OVC007=



000
FTUS41 KAKQ 211128
TAFORF
TAF
KORF 211128Z 2112/2212 08009KT P6SM OVC040
     FM211400 11014G20KT P6SM VCSH SCT007 OVC025
     FM211700 10011KT 3SM -RA BR SCT005 BKN011
     FM212100 02014KT P6SM OVC007=



000
FTUS41 KAKQ 211128
TAFECG
TAF
KECG 211128Z 2112/2212 08010KT P6SM OVC040
     FM211300 11008KT P6SM VCSH SCT015 BKN025
     FM211700 09010KT 4SM -RA BR SCT007 BKN015
     FM212200 02007KT P6SM OVC015=



000
FTUS41 KAKQ 211128
TAFPHF
TAF
KPHF 211128Z 2112/2212 09009KT P6SM OVC040
     FM211300 11005KT 4SM -RA BR SCT008 BKN020
     FM211600 07011KT 3SM -RA BR OVC008
     FM212200 03009KT P6SM SCT003 OVC007=



000
FTUS41 KAKQ 211102 AAB
TAFRIC
TAF AMD
KRIC 211102Z 2111/2206 05007KT P6SM -RA OVC040
     FM211300 05007KT 4SM -RA BR SCT008 BKN025
     FM211700 04009KT 6SM -RA BR OVC008
     FM220200 35007KT 4SM BR SCT003 OVC007=



000
FTUS41 KAKQ 211102 AAB
TAFRIC
TAF AMD
KRIC 211102Z 2111/2206 05007KT P6SM -RA OVC040
     FM211300 05007KT 4SM -RA BR SCT008 BKN025
     FM211700 04009KT 6SM -RA BR OVC008
     FM220200 35007KT 4SM BR SCT003 OVC007=



000
FTUS41 KAKQ 210845 AAA
TAFRIC
TAF AMD
KRIC 210845Z 2109/2206 05005KT P6SM VCSH SCT025 BKN040
     FM211100 07007KT 6SM -RA SCT015 BKN035
     FM211400 05007KT 4SM -RA BR SCT008 BKN015
     FM211700 04009KT 6SM -RADZ BR OVC008
     FM220200 35007KT 4SM BR SCT003 OVC007=



000
FTUS41 KAKQ 210845 AAA
TAFRIC
TAF AMD
KRIC 210845Z 2109/2206 05005KT P6SM VCSH SCT025 BKN040
     FM211100 07007KT 6SM -RA SCT015 BKN035
     FM211400 05007KT 4SM -RA BR SCT008 BKN015
     FM211700 04009KT 6SM -RADZ BR OVC008
     FM220200 35007KT 4SM BR SCT003 OVC007=



000
FTUS41 KAKQ 210553 RRA
TAFRIC
TAF
KRIC 210553Z 2106/2206 00000KT P6SM SCT025 BKN040
     FM211100 07008KT P6SM BKN025
     FM211400 05005KT 4SM -RA BR SCT008 BKN015
     FM211700 05009KT 6SM -RADZ BR OVC008
     FM220200 35007KT 4SM BR SCT003 OVC007=



000
FTUS41 KAKQ 210553 RRA
TAFECG
TAF
KECG 210553Z 2106/2206 09005KT P6SM SCT040 BKN150
     FM211100 11006KT P6SM BKN040
     FM211300 11008KT P6SM VCSH SCT015 BKN025
     FM211700 09010KT 4SM -RA BR SCT007 BKN015
     FM212200 02007KT P6SM OVC015=



000
FTUS41 KAKQ 210553 RRA
TAFPHF
TAF
KPHF 210553Z 2106/2206 10005KT P6SM SCT035 OVC150
     FM211000 09002KT P6SM SCT035 OVC040
     FM211300 11005KT 4SM -RA BR SCT008 BKN020
     FM211600 07011KT 3SM -RA BR OVC008
     FM212200 03009KT P6SM SCT003 OVC007=



000
FTUS41 KAKQ 210553 RRA
TAFORF
TAF
KORF 210553Z 2106/2206 08005KT P6SM SCT035 OVC150
     FM211100 10012KT P6SM SCT012 BKN035
     FM211400 11014G20KT P6SM VCSH SCT007 OVC025
     FM211700 10011KT 3SM -RA BR SCT005 BKN011
     FM212100 02014KT P6SM OVC007=



000
FTUS41 KAKQ 210553 RRA
TAFSBY
TAF
KSBY 210553Z 2106/2206 08003KT P6SM SCT100 BKN200
     FM211100 08005KT P6SM SCT020 BKN040
     FM211400 07006KT P6SM -RA OVC025
     FM211600 07006KT 4SM -RA BR SCT006 BKN015
     FM212100 04009KT P6SM SCT003 OVC007=



000
FTUS41 KAKQ 210553 RRA
TAFPHF
TAF
KPHF 210553Z 2106/2206 10005KT P6SM SCT035 OVC150
     FM211000 09002KT P6SM SCT035 OVC040
     FM211300 11005KT 4SM -RA BR SCT008 BKN020
     FM211600 07011KT 3SM -RA BR OVC008
     FM212200 03009KT P6SM SCT003 OVC007=



000
FTUS41 KAKQ 210553 RRA
TAFECG
TAF
KECG 210553Z 2106/2206 09005KT P6SM SCT040 BKN150
     FM211100 11006KT P6SM BKN040
     FM211300 11008KT P6SM VCSH SCT015 BKN025
     FM211700 09010KT 4SM -RA BR SCT007 BKN015
     FM212200 02007KT P6SM OVC015=



000
FTUS41 KAKQ 210553 RRA
TAFRIC
TAF
KRIC 210553Z 2106/2206 00000KT P6SM SCT025 BKN040
     FM211100 07008KT P6SM BKN025
     FM211400 05005KT 4SM -RA BR SCT008 BKN015
     FM211700 05009KT 6SM -RADZ BR OVC008
     FM220200 35007KT 4SM BR SCT003 OVC007=



000
FTUS41 KAKQ 210553 RRA
TAFORF
TAF
KORF 210553Z 2106/2206 08005KT P6SM SCT035 OVC150
     FM211100 10012KT P6SM SCT012 BKN035
     FM211400 11014G20KT P6SM VCSH SCT007 OVC025
     FM211700 10011KT 3SM -RA BR SCT005 BKN011
     FM212100 02014KT P6SM OVC007=



000
FTUS41 KAKQ 210553 RRA
TAFSBY
TAF
KSBY 210553Z 2106/2206 08003KT P6SM SCT100 BKN200
     FM211100 08005KT P6SM SCT020 BKN040
     FM211400 07006KT P6SM -RA OVC025
     FM211600 07006KT 4SM -RA BR SCT006 BKN015
     FM212100 04009KT P6SM SCT003 OVC007=



000
FTUS41 KAKQ 202320
TAFORF
TAF
KORF 202320Z 2100/2124 04010KT P6SM BKN250
     FM210900 08005KT P6SM SCT035 OVC150
     FM211300 10011G18KT P6SM -RA SCT009 BKN030
     FM211600 10011KT 3SM -RA BR SCT005 BKN011
     FM212000 09012KT 2SM -RA BR OVC005=



000
FTUS41 KAKQ 202320
TAFECG
TAF
KECG 202320Z 2100/2124 08008KT P6SM SCT250
     FM210900 08005KT P6SM SCT040 BKN150
     FM211400 11008KT P6SM -RA SCT015 BKN035
     FM211700 09010KT 4SM -SHRA BR BKN015 OVC030
     FM212000 04012KT 2SM -RA BR OVC007=



000
FTUS41 KAKQ 202320
TAFSBY
TAF
KSBY 202320Z 2100/2124 33011KT P6SM BKN250
     FM210900 02003KT P6SM BKN100
     FM211300 07005KT P6SM -RA SCT020 BKN040
     FM211600 07006KT 4SM -RA BR SCT006 BKN015
     FM212100 05009KT 6SM -RA BR OVC007=



000
FTUS41 KAKQ 202320
TAFPHF
TAF
KPHF 202320Z 2100/2124 08010KT P6SM BKN250
     FM211000 07002KT P6SM SCT035 OVC060
     FM211300 05005KT 4SM -RA BR SCT008 BKN015
     FM211800 07011KT 2SM -RA BR OVC008=



000
FTUS41 KAKQ 202320
TAFRIC
TAF
KRIC 202320Z 2100/2124 03009KT P6SM BKN250
     FM210900 07002KT P6SM SCT035 OVC060
     FM211300 05005KT 4SM -RA BR SCT008 BKN015
     FM211700 05009KT 2SM -RA BR OVC008=



000
FTUS41 KAKQ 202320
TAFPHF
TAF
KPHF 202320Z 2100/2124 08010KT P6SM BKN250
     FM211000 07002KT P6SM SCT035 OVC060
     FM211300 05005KT 4SM -RA BR SCT008 BKN015
     FM211800 07011KT 2SM -RA BR OVC008=



000
FTUS41 KAKQ 202320
TAFECG
TAF
KECG 202320Z 2100/2124 08008KT P6SM SCT250
     FM210900 08005KT P6SM SCT040 BKN150
     FM211400 11008KT P6SM -RA SCT015 BKN035
     FM211700 09010KT 4SM -SHRA BR BKN015 OVC030
     FM212000 04012KT 2SM -RA BR OVC007=



000
FTUS41 KAKQ 202320
TAFORF
TAF
KORF 202320Z 2100/2124 04010KT P6SM BKN250
     FM210900 08005KT P6SM SCT035 OVC150
     FM211300 10011G18KT P6SM -RA SCT009 BKN030
     FM211600 10011KT 3SM -RA BR SCT005 BKN011
     FM212000 09012KT 2SM -RA BR OVC005=



000
FTUS41 KAKQ 202320
TAFRIC
TAF
KRIC 202320Z 2100/2124 03009KT P6SM BKN250
     FM210900 07002KT P6SM SCT035 OVC060
     FM211300 05005KT 4SM -RA BR SCT008 BKN015
     FM211700 05009KT 2SM -RA BR OVC008=



000
FTUS41 KAKQ 202320
TAFSBY
TAF
KSBY 202320Z 2100/2124 33011KT P6SM BKN250
     FM210900 02003KT P6SM BKN100
     FM211300 07005KT P6SM -RA SCT020 BKN040
     FM211600 07006KT 4SM -RA BR SCT006 BKN015
     FM212100 05009KT 6SM -RA BR OVC007=



000
FTUS41 KAKQ 201818 AAA
TAFORF
TAF AMD
KORF 201818Z 2018/2118 04011G20KT P6SM FEW035 SCT250
     FM202300 04006KT P6SM SCT250
     FM210900 08005KT P6SM SCT035 OVC150
     FM211300 10011G18KT P6SM SCT009 BKN025
     FM211600 10011KT 3SM -RA BR SCT005 BKN011=



000
FTUS41 KAKQ 201818 AAA
TAFORF
TAF AMD
KORF 201818Z 2018/2118 04011G20KT P6SM FEW035 SCT250
     FM202300 04006KT P6SM SCT250
     FM210900 08005KT P6SM SCT035 OVC150
     FM211300 10011G18KT P6SM SCT009 BKN025
     FM211600 10011KT 3SM -RA BR SCT005 BKN011=



000
FTUS41 KAKQ 201740
TAFRIC
TAF
KRIC 201740Z 2018/2118 34007KT P6SM SCT250
     FM210100 05003KT P6SM BKN250
     FM210900 07002KT P6SM SCT035 OVC060
     FM211300 05005KT 4SM -RA BR SCT008 BKN015=



000
FTUS41 KAKQ 201740
TAFORF
TAF
KORF 201740Z 2018/2118 02011G20KT P6SM FEW035 SCT250
     FM202300 04006KT P6SM SCT250
     FM210900 08005KT P6SM SCT035 OVC150
     FM211300 10011G18KT P6SM SCT009 BKN025
     FM211600 10011KT 3SM -RA BR SCT005 BKN011=



000
FTUS41 KAKQ 201740
TAFSBY
TAF
KSBY 201740Z 2018/2118 32011G19KT P6SM SCT250
     FM202300 32005KT P6SM SCT250
     FM210900 02003KT P6SM BKN100
     FM211300 07005KT P6SM SCT020 BKN040
     FM211600 07006KT 4SM -RA BR SCT006 BKN015=



000
FTUS41 KAKQ 201740
TAFECG
TAF
KECG 201740Z 2018/2118 05010KT P6SM FEW040 SCT250
     FM202300 06006KT P6SM SCT250
     FM210900 08005KT P6SM SCT040 BKN150
     FM211400 11008KT P6SM SCT015 BKN035
     FM211700 12010KT 4SM -SHRA BR BKN020=



000
FTUS41 KAKQ 201740
TAFPHF
TAF
KPHF 201740Z 2018/2118 34007KT P6SM SCT250
     FM210100 05003KT P6SM BKN250
     FM211000 07002KT P6SM SCT035 OVC060
     FM211400 05005KT 4SM -RA BR SCT008 BKN015=



000
FTUS41 KAKQ 201134
TAFSBY
TAF
KSBY 201134Z 2012/2112 34012G18KT P6SM SKC
     FM202300 34005KT P6SM SCT250
     FM210900 06002KT P6SM OVC100=



000
FTUS41 KAKQ 201134
TAFRIC
TAF
KRIC 201134Z 2012/2112 36010G16KT P6SM SKC
     FM202300 05004KT P6SM BKN250
     FM210900 07002KT P6SM -RA OVC050=



000
FTUS41 KAKQ 201134
TAFECG
TAF
KECG 201134Z 2012/2112 34007KT P6SM SKC
     FM201500 01012G18KT P6SM SCT250
     FM202200 06008KT P6SM SCT250
     FM210900 08005KT P6SM BKN120=



000
FTUS41 KAKQ 201134
TAFORF
TAF
KORF 201134Z 2012/2112 01014G22KT P6SM SKC
     FM202200 05007KT P6SM SCT250
     FM210900 08005KT P6SM OVC120=



000
FTUS41 KAKQ 201134
TAFPHF
TAF
KPHF 201134Z 2012/2112 36010G16KT P6SM SKC
     FM202200 05005KT P6SM SCT250
     FM210900 08003KT P6SM OVC100=



000
FTUS41 KAKQ 200957 AAA
TAFECG
TAF AMD
KECG 200957Z 2010/2106 24005KT P6SM SKC
     FM201100 32007KT P6SM SKC
     FM201300 01012G18KT P6SM SCT250
     FM202200 06008KT P6SM SCT250=



000
FTUS41 KAKQ 200956 AAB
TAFPHF
TAF AMD
KPHF 200956Z 2010/2106 35007KT P6SM SKC
     FM201200 01011G16KT P6SM SCT250
     FM202200 05005KT P6SM SCT250=



000
FTUS41 KAKQ 200956 AAB
TAFPHF
TAF AMD
KPHF 200956Z 2010/2106 35007KT P6SM SKC
     FM201200 01011G16KT P6SM SCT250
     FM202200 05005KT P6SM SCT250=



000
FTUS41 KAKQ 200955 AAA
TAFORF
TAF AMD
KORF 200955Z 2010/2106 34008KT P6SM SKC
     FM201100 01014G22KT P6SM SCT250
     FM202200 05007KT P6SM SCT250=



000
FTUS41 KAKQ 200847 AAA
TAFSBY
TAF AMD
KSBY 200847Z 2009/2106 32009KT P6SM SKC
     FM201100 32012G18KT P6SM SCT250
     FM202300 34004KT P6SM SCT250=



000
FTUS41 KAKQ 200847 AAA
TAFSBY
TAF AMD
KSBY 200847Z 2009/2106 32009KT P6SM SKC
     FM201100 32012G18KT P6SM SCT250
     FM202300 34004KT P6SM SCT250=



000
FTUS41 KAKQ 200818 AAA
TAFPHF
TAF AMD
KPHF 200818Z 2008/2106 34004KT 4SM BR SCT005
      TEMPO 2008/2009 1SM BR VV005
     FM200900 35007KT P6SM SKC
     FM201200 01011G16KT P6SM SCT250
     FM202200 05005KT P6SM SCT250=



000
FTUS41 KAKQ 200818 AAA
TAFPHF
TAF AMD
KPHF 200818Z 2008/2106 34004KT 4SM BR SCT005
      TEMPO 2008/2009 1SM BR VV005
     FM200900 35007KT P6SM SKC
     FM201200 01011G16KT P6SM SCT250
     FM202200 05005KT P6SM SCT250=



000
FTUS41 KAKQ 200536
TAFECG
TAF
KECG 200536Z 2006/2106 24005KT P6SM SKC
     FM200900 32007KT P6SM SKC
     FM201200 01012G18KT P6SM SCT250
     FM202200 06008KT P6SM SCT250=



000
FTUS41 KAKQ 200536
TAFPHF
TAF
KPHF 200536Z 2006/2106 24005KT P6SM SCT100
     FM200800 35008KT P6SM SKC
     FM201200 01011G16KT P6SM SCT250
     FM202200 05005KT P6SM SCT250=



000
FTUS41 KAKQ 200536
TAFSBY
TAF
KSBY 200536Z 2006/2106 28006KT P6SM SKC
     FM200800 32008KT P6SM SKC
     FM201100 32012G18KT P6SM SCT250
     FM202300 34004KT P6SM SCT250=



000
FTUS41 KAKQ 200536
TAFORF
TAF
KORF 200536Z 2006/2106 23007KT P6SM FEW100
     FM200800 36010KT P6SM SKC
     FM201100 01014G22KT P6SM SCT250
     FM202200 05007KT P6SM SCT250=



000
FTUS41 KAKQ 200536
TAFRIC
TAF
KRIC 200536Z 2006/2106 35008KT P6SM SKC
     FM201100 36012G16KT P6SM SCT250
     FM202300 05004KT P6SM BKN250=



000
FTUS41 KAKQ 200536
TAFSBY
TAF
KSBY 200536Z 2006/2106 28006KT P6SM SKC
     FM200800 32008KT P6SM SKC
     FM201100 32012G18KT P6SM SCT250
     FM202300 34004KT P6SM SCT250=



000
FTUS41 KAKQ 200536
TAFORF
TAF
KORF 200536Z 2006/2106 23007KT P6SM FEW100
     FM200800 36010KT P6SM SKC
     FM201100 01014G22KT P6SM SCT250
     FM202200 05007KT P6SM SCT250=



000
FTUS41 KAKQ 200536
TAFRIC
TAF
KRIC 200536Z 2006/2106 35008KT P6SM SKC
     FM201100 36012G16KT P6SM SCT250
     FM202300 05004KT P6SM BKN250=



000
FTUS41 KAKQ 200536
TAFPHF
TAF
KPHF 200536Z 2006/2106 24005KT P6SM SCT100
     FM200800 35008KT P6SM SKC
     FM201200 01011G16KT P6SM SCT250
     FM202200 05005KT P6SM SCT250=



000
FTUS41 KAKQ 200536
TAFECG
TAF
KECG 200536Z 2006/2106 24005KT P6SM SKC
     FM200900 32007KT P6SM SKC
     FM201200 01012G18KT P6SM SCT250
     FM202200 06008KT P6SM SCT250=



000
FTUS41 KAKQ 200438 AAB
TAFECG
TAF AMD
KECG 200438Z 2005/2024 24003KT 4SM BR FEW100
      TEMPO 2005/2009 1/2SM FG VV002
     FM200900 01010G15KT P6SM SKC
     FM201800 03011KT P6SM SCT050 BKN250=



000
FTUS41 KAKQ 200438 AAB
TAFECG
TAF AMD
KECG 200438Z 2005/2024 24003KT 4SM BR FEW100
      TEMPO 2005/2009 1/2SM FG VV002
     FM200900 01010G15KT P6SM SKC
     FM201800 03011KT P6SM SCT050 BKN250=



000
FTUS41 KAKQ 200427 AAA
TAFRIC
TAF AMD
KRIC 200427Z 2004/2024 VRB04KT P6SM VCSH SCT040 BKN080
     FM200600 35008KT P6SM SKC
     FM201300 01013KT P6SM SCT050 SCT250=



000
FTUS41 KAKQ 200427 AAA
TAFRIC
TAF AMD
KRIC 200427Z 2004/2024 VRB04KT P6SM VCSH SCT040 BKN080
     FM200600 35008KT P6SM SKC
     FM201300 01013KT P6SM SCT050 SCT250=



000
FTUS41 KAKQ 200425 AAA
TAFECG
TAF AMD
KECG 200425Z 2004/2024 21003KT 4SM BR FEW100
      TEMPO 2004/2008 1SM BR
     FM200900 01010G15KT P6SM SKC
     FM201800 03011KT P6SM SCT050 BKN250=



000
FTUS41 KAKQ 192353 CCA
TAFPHF
TAF COR
KPHF 192353Z 2000/2024 09006KT P6SM VCTS BKN040CB BKN100
      TEMPO 2000/2001 2SM TSRA OVC030CB
     FM200200 25003KT P6SM SCT120 BKN250
     FM200800 35010G15KT P6SM SKC
     FM201600 01011KT P6SM SKC=



000
FTUS41 KAKQ 192320
TAFPHF
TAF
KPHF 192320Z 2000/2024 09006KT P6SM VCSH BKN040 BKN100
     FM200200 25003KT P6SM SCT120 BKN250
     FM200800 35010G15KT P6SM SKC
     FM201600 01011KT P6SM SKC=



000
FTUS41 KAKQ 192320
TAFRIC
TAF
KRIC 192320Z 2000/2024 31004KT P6SM VCSH BKN045 BKN100
     FM200300 31006KT P6SM SCT080 BKN120
     FM200600 35008KT P6SM SKC
     FM201300 01013KT P6SM SCT050 SCT250=



000
FTUS41 KAKQ 192320
TAFECG
TAF
KECG 192320Z 2000/2024 27004KT P6SM VCTS BKN045CB BKN100
      TEMPO 2000/2001 5SM -TSRA BKN040CB
     FM200100 27003KT P6SM BKN100 BKN150
     FM200900 01010G15KT P6SM SKC
     FM201800 03011KT P6SM SCT050 BKN250=



000
FTUS41 KAKQ 192320
TAFORF
TAF
KORF 192320Z 2000/2024 19010KT P6SM VCSH BKN040
      TEMPO 2000/2001 3SM TSRA OVC030CB
     FM200300 22004KT P6SM SCT120 SCT250
     FM200800 01012G20KT P6SM SKC
     FM201600 02011KT P6SM FEW040=



000
FTUS41 KAKQ 192320
TAFSBY
TAF
KSBY 192320Z 2000/2024 23004KT P6SM SCT120
     FM200700 32011KT P6SM SKC
     FM201400 32010G15KT P6SM FEW050=



000
FTUS41 KAKQ 192320
TAFECG
TAF
KECG 192320Z 2000/2024 27004KT P6SM VCTS BKN045CB BKN100
      TEMPO 2000/2001 5SM -TSRA BKN040CB
     FM200100 27003KT P6SM BKN100 BKN150
     FM200900 01010G15KT P6SM SKC
     FM201800 03011KT P6SM SCT050 BKN250=



000
FTUS41 KAKQ 192320
TAFPHF
TAF
KPHF 192320Z 2000/2024 09006KT P6SM VCSH BKN040 BKN100
     FM200200 25003KT P6SM SCT120 BKN250
     FM200800 35010G15KT P6SM SKC
     FM201600 01011KT P6SM SKC=



000
FTUS41 KAKQ 192320
TAFORF
TAF
KORF 192320Z 2000/2024 19010KT P6SM VCSH BKN040
      TEMPO 2000/2001 3SM TSRA OVC030CB
     FM200300 22004KT P6SM SCT120 SCT250
     FM200800 01012G20KT P6SM SKC
     FM201600 02011KT P6SM FEW040=



000
FTUS41 KAKQ 192320
TAFSBY
TAF
KSBY 192320Z 2000/2024 23004KT P6SM SCT120
     FM200700 32011KT P6SM SKC
     FM201400 32010G15KT P6SM FEW050=



000
FTUS41 KAKQ 192320
TAFRIC
TAF
KRIC 192320Z 2000/2024 31004KT P6SM VCSH BKN045 BKN100
     FM200300 31006KT P6SM SCT080 BKN120
     FM200600 35008KT P6SM SKC
     FM201300 01013KT P6SM SCT050 SCT250=



000
FTUS41 KAKQ 192152 AAC
TAFECG
TAF AMD
KECG 192152Z 1922/2018 13006KT P6SM FEW045 BKN060 OVC090
      TEMPO 1922/2001 5SM -TSRA BKN040CB
     FM200400 27003KT P6SM SCT120 SCT250
     FM200900 01010KT P6SM SKC=



000
FTUS41 KAKQ 191927 AAB
TAFECG
TAF AMD
KECG 191927Z 1919/2018 08010KT P6SM TS BKN040CB
      TEMPO 1919/1921 08010G20KT 4SM -TSRA
     FM192100 15005KT P6SM BKN040
      TEMPO 1923/2001 5SM -TSRA BKN040CB
     FM200400 27003KT P6SM SCT120 SCT250
     FM200900 01010KT P6SM SKC=



000
FTUS41 KAKQ 191927 AAB
TAFECG
TAF AMD
KECG 191927Z 1919/2018 08010KT P6SM TS BKN040CB
      TEMPO 1919/1921 08010G20KT 4SM -TSRA
     FM192100 15005KT P6SM BKN040
      TEMPO 1923/2001 5SM -TSRA BKN040CB
     FM200400 27003KT P6SM SCT120 SCT250
     FM200900 01010KT P6SM SKC=



000
FTUS41 KAKQ 191904 AAA
TAFECG
TAF AMD
KECG 191904Z 1919/2018 08010KT P6SM VCTS SCT040CB BKN050
     FM192000 22006KT P6SM SCT040 BKN250
     FM192200 15005KT P6SM BKN040
      TEMPO 1922/2001 5SM -TSRA BKN040CB
     FM200400 27003KT P6SM SCT120 SCT250
     FM200900 01010KT P6SM SKC=



000
FTUS41 KAKQ 191904 AAA
TAFECG
TAF AMD
KECG 191904Z 1919/2018 08010KT P6SM VCTS SCT040CB BKN050
     FM192000 22006KT P6SM SCT040 BKN250
     FM192200 15005KT P6SM BKN040
      TEMPO 1922/2001 5SM -TSRA BKN040CB
     FM200400 27003KT P6SM SCT120 SCT250
     FM200900 01010KT P6SM SKC=



000
FTUS41 KAKQ 191737
TAFPHF
TAF
KPHF 191737Z 1918/2018 32009KT P6SM SCT040 BKN250
     FM192100 02006KT P6SM BKN040
     FM200200 25003KT P6SM SCT120 SCT250
     FM200800 35009KT P6SM SKC=



000
FTUS41 KAKQ 191737
TAFECG
TAF
KECG 191737Z 1918/2018 22006KT P6SM VCTS SCT040CB BKN250
     FM191900 22006KT P6SM SCT040 BKN250
     FM192200 15005KT P6SM BKN040
      TEMPO 1922/2001 5SM -TSRA BKN040CB
     FM200400 27003KT P6SM SCT120 SCT250
     FM200900 01010KT P6SM SKC=



000
FTUS41 KAKQ 191737
TAFORF
TAF
KORF 191737Z 1918/2018 01008KT P6SM SCT040 BKN250
     FM192100 05005KT P6SM BKN040
      TEMPO 1921/1924 5SM -TSRA BKN040CB
     FM200300 22004KT P6SM SCT120 SCT250
     FM200800 01010G18KT P6SM SKC=



000
FTUS41 KAKQ 191737
TAFSBY
TAF
KSBY 191737Z 1918/2018 30003KT P6SM SCT025 BKN035
     FM191900 28007KT P6SM BKN040
     FM200000 25003KT P6SM SCT120 SCT250
     FM200700 32008KT P6SM SKC=



000
FTUS41 KAKQ 191737
TAFRIC
TAF
KRIC 191737Z 1918/2018 24005KT P6SM SCT050 BKN250
     FM200000 27004KT P6SM SCT120 SCT250
     FM200600 35008KT P6SM SKC=



000
FTUS41 KAKQ 191737
TAFPHF
TAF
KPHF 191737Z 1918/2018 32009KT P6SM SCT040 BKN250
     FM192100 02006KT P6SM BKN040
     FM200200 25003KT P6SM SCT120 SCT250
     FM200800 35009KT P6SM SKC=



000
FTUS41 KAKQ 191737
TAFSBY
TAF
KSBY 191737Z 1918/2018 30003KT P6SM SCT025 BKN035
     FM191900 28007KT P6SM BKN040
     FM200000 25003KT P6SM SCT120 SCT250
     FM200700 32008KT P6SM SKC=



000
FTUS41 KAKQ 191737
TAFECG
TAF
KECG 191737Z 1918/2018 22006KT P6SM VCTS SCT040CB BKN250
     FM191900 22006KT P6SM SCT040 BKN250
     FM192200 15005KT P6SM BKN040
      TEMPO 1922/2001 5SM -TSRA BKN040CB
     FM200400 27003KT P6SM SCT120 SCT250
     FM200900 01010KT P6SM SKC=



000
FTUS41 KAKQ 191737
TAFORF
TAF
KORF 191737Z 1918/2018 01008KT P6SM SCT040 BKN250
     FM192100 05005KT P6SM BKN040
      TEMPO 1921/1924 5SM -TSRA BKN040CB
     FM200300 22004KT P6SM SCT120 SCT250
     FM200800 01010G18KT P6SM SKC=



000
FTUS41 KAKQ 191737
TAFRIC
TAF
KRIC 191737Z 1918/2018 24005KT P6SM SCT050 BKN250
     FM200000 27004KT P6SM SCT120 SCT250
     FM200600 35008KT P6SM SKC=



000
FTUS41 KAKQ 191727 AAA
TAFECG
TAF AMD
KECG 191727Z 1917/2012 20006KT P6SM TS SCT040CB SCT250
     FM191800 24007KT P6SM VCSH BKN050 BKN120
     FM200400 27003KT 5SM BR SCT120 SCT250
     FM200900 34009KT P6SM SKC=



000
FTUS41 KAKQ 191727 AAA
TAFECG
TAF AMD
KECG 191727Z 1917/2012 20006KT P6SM TS SCT040CB SCT250
     FM191800 24007KT P6SM VCSH BKN050 BKN120
     FM200400 27003KT 5SM BR SCT120 SCT250
     FM200900 34009KT P6SM SKC=



000
FTUS41 KAKQ 191609 AAB
TAFSBY
TAF AMD
KSBY 191609Z 1916/2012 33003KT P6SM BKN025
     FM191800 28007KT P6SM VCSH BKN050 BKN120
     FM200000 25003KT 4SM BR SCT120 SCT250
     FM200700 32008KT P6SM SKC=



    US Dept of Commerce
    National Oceanic and Atmospheric Administration
    National Weather Service
    1325 East West Highway
    Silver Spring, MD 20910
    Page Author: NWS Internet Services Team
Disclaimer
Information Quality
Credits
Glossary
Privacy Policy
Freedom of Information Act (FOIA)
About Us
Career Opportunities